Time;durP1;ratioP1;P1;durP2;ratioP2;P2;SDS_P1;SDS_P2;PMS_P1;PMS_P2;Temp;Humidity;BMP_temperature;BMP_pressure;BME280_temperature;BME280_humidity;BME280_pressure;Samples;Min_cycle;Max_cycle;Signal;HPM_P1;HPM_P2
2023/04/13 00:02:03;;;;;;;7.13;2.58;;;;;;;5.35;100.00;99608.63;6277057;28;20050;-75
2023/04/13 00:05:09;;;;;;;3.67;2.08;;;;;;;5.34;100.00;99612.16;6278431;28;20132;-75
2023/04/13 00:08:10;;;;;;;5.47;2.20;;;;;;;5.31;100.00;99601.88;6277646;28;20048;-72
2023/04/13 00:11:12;;;;;;;4.65;3.15;;;;;;;5.30;100.00;99601.06;6278119;28;20057;-72
2023/04/13 00:14:14;;;;;;;2.75;1.70;;;;;;;5.24;100.00;99597.94;6278040;28;20132;-72
2023/04/13 00:17:15;;;;;;;3.83;2.05;;;;;;;5.21;100.00;99587.66;6277350;28;20052;-72
2023/04/13 00:20:18;;;;;;;4.60;2.15;;;;;;;5.21;100.00;99590.25;6277495;28;20520;-72
2023/04/13 00:23:19;;;;;;;4.70;1.80;;;;;;;5.14;100.00;99576.72;6277822;28;20433;-72
2023/04/13 00:26:21;;;;;;;4.28;1.92;;;;;;;5.12;100.00;99583.75;6277892;28;20056;-72
2023/04/13 00:29:22;;;;;;;3.88;1.95;;;;;;;5.11;100.00;99581.22;6277876;28;20131;-72
2023/04/13 00:32:25;;;;;;;6.47;2.13;;;;;;;5.05;100.00;99572.81;6277142;28;20044;-75
2023/04/13 00:35:28;;;;;;;6.97;2.65;;;;;;;5.00;100.00;99576.56;6277919;28;20227;-75
2023/04/13 00:38:29;;;;;;;5.50;1.70;;;;;;;4.97;100.00;99571.50;6277409;28;20052;-75
2023/04/13 00:41:31;;;;;;;6.35;1.67;;;;;;;4.96;100.00;99565.44;6277338;28;20052;-75
2023/04/13 00:44:32;;;;;;;3.80;2.17;;;;;;;4.92;100.00;99561.31;6277646;28;20128;-72
2023/04/13 00:47:34;;;;;;;6.20;2.53;;;;;;;4.89;100.00;99563.22;6276940;28;20049;-72
2023/04/13 00:50:37;;;;;;;6.30;1.80;;;;;;;4.89;100.00;99558.00;6277417;28;20456;-72
2023/04/13 00:53:39;;;;;;;4.63;1.65;;;;;;;4.90;100.00;99564.88;6277004;28;20056;-73
2023/04/13 00:56:41;;;;;;;7.93;2.35;;;;;;;4.88;100.00;99562.38;6277171;28;20047;-72
2023/04/13 00:59:43;;;;;;;4.10;2.05;;;;;;;4.84;100.00;99566.88;6276950;28;20048;-73
2023/04/13 01:02:44;;;;;;;5.72;2.47;;;;;;;4.84;100.00;99564.28;6276803;28;20131;-75
2023/04/13 01:05:53;;;;;;;3.80;1.70;;;;;;;4.85;100.00;99565.09;6277170;28;20457;-75
2023/04/13 01:09:01;;;;;;;3.38;1.83;;;;;;;4.87;100.00;99555.47;6276748;28;20048;-75
2023/04/13 01:12:09;;;;;;;5.15;2.40;;;;;;;4.83;100.00;99554.78;6276793;28;20049;-75
2023/04/13 01:15:13;;;;;;;9.88;2.72;;;;;;;4.81;100.00;99558.38;6276467;28;20048;-75
2023/04/13 01:18:17;;;;;;;11.10;2.50;;;;;;;4.83;100.00;99548.75;6275878;28;20049;-75
2023/04/13 01:21:24;;;;;;;7.47;2.97;;;;;;;4.81;100.00;99546.22;6276440;28;20437;-72
2023/04/13 01:24:39;;;;;;;4.28;2.65;;;;;;;4.76;100.00;99542.97;6276478;28;20578;-72
2023/04/13 01:27:46;;;;;;;2.90;1.98;;;;;;;4.73;100.00;99542.31;6276587;28;20045;-75
2023/04/13 01:30:49;;;;;;;5.50;2.08;;;;;;;4.73;100.00;99548.34;6276148;28;20453;-75
2023/04/13 01:33:50;;;;;;;7.07;2.60;;;;;;;4.78;100.00;99542.91;6276196;28;20357;-75
2023/04/13 01:36:53;;;;;;;4.38;1.88;;;;;;;4.80;100.00;99533.25;6276126;28;20045;-75
2023/04/13 01:39:55;;;;;;;4.25;2.53;;;;;;;4.77;100.00;99536.88;6275970;28;20057;-75
2023/04/13 01:42:57;;;;;;;4.68;2.70;;;;;;;4.77;100.00;99536.03;6276190;28;20052;-75
2023/04/13 01:46:04;;;;;;;4.72;2.63;;;;;;;4.77;100.00;99538.63;6276058;28;20048;-75
2023/04/13 01:49:09;;;;;;;5.90;2.67;;;;;;;4.75;100.00;99537.84;6275506;28;20045;-75
2023/04/13 01:52:11;;;;;;;6.03;2.65;;;;;;;4.82;100.00;99541.84;6275832;28;20055;-72
2023/04/13 01:55:13;;;;;;;6.53;3.25;;;;;;;4.82;100.00;99534.88;6275883;28;20049;-73
2023/04/13 01:58:18;;;;;;;10.35;3.10;;;;;;;4.80;100.00;99526.28;6275673;28;20091;-72
2023/04/13 02:01:19;;;;;;;5.32;2.92;;;;;;;4.80;100.00;99536.69;6275594;28;20056;-74
2023/04/13 02:04:21;;;;;;;8.25;3.90;;;;;;;4.83;100.00;99531.34;6275730;28;20187;-75
2023/04/13 02:07:22;;;;;;;5.80;3.20;;;;;;;4.83;100.00;99526.16;6275507;28;20055;-75
2023/04/13 02:10:25;;;;;;;7.68;3.63;;;;;;;4.88;100.00;99518.13;6263917;28;20441;-72
2023/04/13 02:13:28;;;;;;;9.77;4.10;;;;;;;4.88;100.00;99519.88;6267037;28;20056;-73
2023/04/13 02:16:29;;;;;;;9.32;3.92;;;;;;;4.93;100.00;99525.69;6266967;28;20052;-72
2023/04/13 02:19:31;;;;;;;8.98;4.38;;;;;;;4.92;100.00;99529.22;6274696;28;20045;-72
2023/04/13 02:22:32;;;;;;;9.02;4.60;;;;;;;4.92;100.00;99531.84;6275238;28;20044;-72
2023/04/13 02:25:34;;;;;;;11.60;3.90;;;;;;;4.95;100.00;99531.66;6274345;28;20045;-72
2023/04/13 02:28:37;;;;;;;17.15;3.85;;;;;;;4.90;100.00;99521.47;6275042;28;20045;-72
2023/04/13 02:31:42;;;;;;;6.45;3.28;;;;;;;4.94;100.00;99528.22;6275020;28;20425;-72
2023/04/13 02:34:43;;;;;;;10.82;3.97;;;;;;;4.91;100.00;99522.34;6275253;28;20044;-75
2023/04/13 02:37:45;;;;;;;8.90;3.58;;;;;;;4.95;100.00;99521.25;6272899;28;20044;-75
2023/04/13 02:40:48;;;;;;;7.22;3.75;;;;;;;4.98;100.00;99519.34;6274201;28;20053;-75
2023/04/13 02:43:50;;;;;;;15.00;3.60;;;;;;;5.02;100.00;99523.47;6274790;28;20145;-74
2023/04/13 02:46:52;;;;;;;8.90;3.15;;;;;;;5.07;100.00;99525.84;6275232;28;20122;-75
2023/04/13 02:49:53;;;;;;;10.73;4.07;;;;;;;5.09;100.00;99524.88;6273808;28;20053;-74
2023/04/13 02:52:55;;;;;;;8.23;4.40;;;;;;;5.07;100.00;99521.47;6274892;28;20227;-75
2023/04/13 02:55:56;;;;;;;9.98;3.88;;;;;;;5.08;100.00;99525.75;6274944;28;20049;-75
2023/04/13 02:58:59;;;;;;;7.72;3.58;;;;;;;5.17;100.00;99518.41;6274261;28;20052;-75
2023/04/13 03:02:01;;;;;;;8.65;3.28;;;;;;;5.14;100.00;99523.78;6274952;28;20084;-75
2023/04/13 03:05:04;;;;;;;5.78;2.58;;;;;;;5.05;100.00;99519.88;6274628;28;20091;-75
2023/04/13 03:08:06;;;;;;;8.18;2.83;;;;;;;5.02;100.00;99523.47;6266550;28;20057;-75
2023/04/13 03:11:08;;;;;;;8.30;3.60;;;;;;;5.01;100.00;99520.97;6274667;28;20052;-74
2023/04/13 03:14:11;;;;;;;5.93;3.33;;;;;;;5.08;100.00;99514.50;6274833;28;20055;-72
2023/04/13 03:17:13;;;;;;;4.13;2.75;;;;;;;5.09;100.00;99516.22;6274442;28;20330;-73
2023/04/13 03:20:15;;;;;;;5.38;2.80;;;;;;;5.11;100.00;99508.31;6274547;28;20051;-72
2023/04/13 03:23:17;;;;;;;5.65;2.88;;;;;;;5.12;100.00;99504.78;6274163;28;20360;-73
2023/04/13 03:26:18;;;;;;;10.38;3.47;;;;;;;5.16;100.00;99514.97;6274622;28;20049;-72
2023/04/13 03:29:22;;;;;;;4.43;2.55;;;;;;;5.20;100.00;99513.88;6274141;28;20049;-72
2023/04/13 03:32:24;;;;;;;4.45;2.35;;;;;;;5.27;100.00;99515.28;6274652;28;20052;-72
2023/04/13 03:35:26;;;;;;;4.38;2.47;;;;;;;5.27;100.00;99522.25;6272626;28;20053;-73
2023/04/13 03:38:27;;;;;;;4.30;2.35;;;;;;;5.31;100.00;99521.16;6260885;28;20095;-73
2023/04/13 03:41:28;;;;;;;4.32;2.28;;;;;;;5.31;100.00;99515.94;6260330;28;20033;-73
2023/04/13 03:44:31;;;;;;;4.90;2.15;;;;;;;5.37;100.00;99520.84;6260637;28;20044;-72
2023/04/13 03:47:33;;;;;;;4.65;2.50;;;;;;;5.41;100.00;99530.19;6258029;28;20041;-73
2023/04/13 03:50:34;;;;;;;6.35;2.28;;;;;;;5.46;100.00;99524.75;6258587;28;20041;-73
2023/04/13 03:53:36;;;;;;;7.50;2.40;;;;;;;5.45;100.00;99520.44;6261106;28;20053;-73
2023/04/13 03:56:38;;;;;;;9.30;1.80;;;;;;;5.50;100.00;99531.47;6258597;28;20047;-72
2023/04/13 03:59:41;;;;;;;5.63;2.55;;;;;;;5.52;100.00;99517.44;6258400;28;20037;-73
2023/04/13 04:02:42;;;;;;;3.83;1.95;;;;;;;5.57;100.00;99514.59;6258596;28;20581;-73
2023/04/13 04:05:43;;;;;;;9.60;2.00;;;;;;;5.55;100.00;99519.88;6271146;28;20152;-73
2023/04/13 04:08:48;;;;;;;6.03;2.40;;;;;;;5.56;100.00;99512.91;6258987;28;20052;-73
2023/04/13 04:11:49;;;;;;;4.43;1.88;;;;;;;5.61;100.00;99521.31;6264178;28;20052;-73
2023/04/13 04:14:52;;;;;;;6.57;2.60;;;;;;;5.62;100.00;99515.19;6258161;28;20041;-75
2023/04/13 04:17:54;;;;;;;3.78;1.92;;;;;;;5.70;100.00;99520.00;6258396;28;20045;-76
2023/04/13 04:20:55;;;;;;;4.40;2.00;;;;;;;5.73;100.00;99515.47;6256633;28;20045;-76
2023/04/13 04:23:59;;;;;;;3.80;1.80;;;;;;;5.73;100.00;99510.25;6256463;28;20041;-75
2023/04/13 04:27:01;;;;;;;3.15;1.77;;;;;;;5.74;100.00;99509.34;6257090;28;20055;-73
2023/04/13 04:30:09;;;;;;;3.22;2.00;;;;;;;5.69;100.00;99513.13;6255927;28;20587;-75
2023/04/13 04:33:10;;;;;;;4.70;2.05;;;;;;;5.70;100.00;99509.56;6250960;28;20080;-75
2023/04/13 04:36:12;;;;;;;6.30;2.00;;;;;;;5.70;100.00;99507.81;6263105;28;20053;-75
2023/04/13 04:39:14;;;;;;;5.13;2.22;;;;;;;5.72;100.00;99508.59;6277584;28;20334;-75
2023/04/13 04:42:17;;;;;;;4.30;1.52;;;;;;;5.76;100.00;99507.47;6277355;28;20056;-75
2023/04/13 04:45:20;;;;;;;4.60;2.13;;;;;;;5.75;100.00;99510.16;6277804;28;20484;-75
2023/04/13 04:48:23;;;;;;;3.53;1.42;;;;;;;5.74;100.00;99514.53;6276231;28;20076;-75
2023/04/13 04:51:26;;;;;;;6.00;1.38;;;;;;;5.76;100.00;99507.47;6277210;28;20069;-74
2023/04/13 04:54:28;;;;;;;4.97;2.05;;;;;;;5.77;100.00;99508.34;6276433;28;20048;-74
2023/04/13 04:57:29;;;;;;;3.90;1.70;;;;;;;5.78;100.00;99513.47;6276302;28;20060;-74
2023/04/13 05:00:32;;;;;;;2.53;1.75;;;;;;;5.77;100.00;99505.72;6277129;28;20049;-75
2023/04/13 05:03:33;;;;;;;7.05;1.77;;;;;;;5.80;100.00;99501.16;6276654;28;20361;-75
2023/04/13 05:06:35;;;;;;;3.50;1.30;;;;;;;5.85;100.00;99503.53;6276657;28;20429;-74
2023/04/13 05:09:37;;;;;;;3.85;2.08;;;;;;;5.90;100.00;99513.72;6275724;28;20075;-74
2023/04/13 05:12:38;;;;;;;3.20;1.20;;;;;;;5.96;100.00;99518.66;6273995;28;20056;-75
2023/04/13 05:15:41;;;;;;;1.95;1.27;;;;;;;5.95;100.00;99515.19;6276244;28;20048;-75
2023/04/13 05:18:44;;;;;;;2.90;1.23;;;;;;;5.96;100.00;99518.66;6276090;28;20049;-74
2023/04/13 05:21:45;;;;;;;1.67;1.10;;;;;;;5.97;100.00;99518.56;6276556;28;20156;-74
2023/04/13 05:24:47;;;;;;;2.33;1.25;;;;;;;5.98;100.00;99520.22;6276378;28;20049;-74
2023/04/13 05:27:48;;;;;;;1.10;0.85;;;;;;;6.04;100.00;99530.34;6275619;28;20361;-75
2023/04/13 05:30:51;;;;;;;3.08;1.55;;;;;;;6.04;100.00;99527.75;6276722;28;20049;-74
2023/04/13 05:33:52;;;;;;;2.45;0.90;;;;;;;6.10;100.00;99531.78;6276366;28;20051;-74
2023/04/13 05:36:54;;;;;;;1.40;0.82;;;;;;;6.15;100.00;99536.75;6274741;28;20349;-74
2023/04/13 05:39:56;;;;;;;3.20;0.90;;;;;;;6.17;100.00;99540.94;6275896;28;20052;-75
2023/04/13 05:42:57;;;;;;;1.45;0.98;;;;;;;6.21;100.00;99544.22;6275790;28;20052;-75
2023/04/13 05:46:00;;;;;;;1.83;0.90;;;;;;;6.21;100.00;99550.28;6275888;28;20072;-74
2023/04/13 05:49:01;;;;;;;1.20;0.65;;;;;;;6.26;100.00;99552.63;6274782;28;20045;-74
2023/04/13 05:52:03;;;;;;;2.00;1.00;;;;;;;6.26;100.00;99552.63;6275655;28;20049;-75
2023/04/13 05:55:05;;;;;;;0.70;0.63;;;;;;;6.29;100.00;99555.91;6275881;28;20102;-76
2023/04/13 05:58:07;;;;;;;3.83;1.33;;;;;;;6.34;100.00;99559.13;6275129;28;20052;-75
2023/04/13 06:01:11;;;;;;;0.93;0.70;;;;;;;6.36;100.00;99566.88;6275675;28;20045;-74
2023/04/13 06:04:14;;;;;;;1.08;0.70;;;;;;;6.41;100.00;99564.84;6275352;28;20053;-75
2023/04/13 06:07:16;;;;;;;1.17;0.50;;;;;;;6.47;100.00;99572.34;6275360;28;20059;-75
2023/04/13 06:10:18;;;;;;;2.22;0.77;;;;;;;6.50;100.00;99571.34;6275318;28;20056;-74
2023/04/13 06:13:19;;;;;;;1.90;0.68;;;;;;;6.50;100.00;99582.63;6275602;28;20064;-75
2023/04/13 06:16:23;;;;;;;0.73;0.73;;;;;;;6.56;100.00;99578.81;6275444;28;20125;-75
2023/04/13 06:19:24;;;;;;;0.50;0.50;;;;;;;6.55;100.00;99587.56;6274844;28;20545;-74
2023/04/13 06:22:26;;;;;;;3.28;0.60;;;;;;;6.60;100.00;99582.94;6275256;28;20134;-75
2023/04/13 06:25:27;;;;;;;0.47;0.45;;;;;;;6.65;100.00;99590.53;6275387;28;20361;-75
2023/04/13 06:28:30;;;;;;;0.77;0.50;;;;;;;6.72;100.00;99592.72;6274912;28;20051;-74
2023/04/13 06:31:33;;;;;;;2.55;0.52;;;;;;;6.80;100.00;99598.31;6275473;28;20060;-75
2023/04/13 06:34:34;;;;;;;3.72;0.80;;;;;;;6.92;100.00;99595.97;6275165;28;20052;-74
2023/04/13 06:37:36;;;;;;;0.63;0.43;;;;;;;6.99;100.00;99599.88;6274798;28;20436;-75
2023/04/13 06:40:38;;;;;;;0.63;0.55;;;;;;;7.00;100.00;99597.22;6275254;28;20191;-74
2023/04/13 06:43:40;;;;;;;0.88;0.38;;;;;;;7.02;100.00;99607.56;6274487;28;20045;-75
2023/04/13 06:46:42;;;;;;;0.30;0.30;;;;;;;7.06;100.00;99609.91;6275107;28;20044;-75
2023/04/13 06:49:44;;;;;;;2.45;0.47;;;;;;;7.17;100.00;99611.06;6274780;28;20045;-75
2023/04/13 06:52:46;;;;;;;4.25;0.68;;;;;;;7.18;100.00;99610.16;6274848;28;20048;-74
2023/04/13 06:55:48;;;;;;;1.77;0.52;;;;;;;7.22;100.00;99616.84;6274779;28;20060;-75
2023/04/13 06:58:49;;;;;;;2.00;0.40;;;;;;;7.24;100.00;99622.84;6274796;28;20049;-75
2023/04/13 07:01:52;;;;;;;3.38;0.60;;;;;;;7.21;100.00;99623.84;6274761;28;20052;-75
2023/04/13 07:04:54;;;;;;;1.23;0.40;;;;;;;7.24;100.00;99634.16;6274645;28;20052;-75
2023/04/13 07:07:55;;;;;;;1.60;0.60;;;;;;;7.33;100.00;99640.63;6274546;28;20049;-75
2023/04/13 07:10:57;;;;;;;3.13;0.20;;;;;;;7.33;100.00;99646.69;6275508;28;20138;-75
2023/04/13 07:13:58;;;;;;;2.20;0.45;;;;;;;7.29;100.00;99645.16;6279267;28;20532;-75
2023/04/13 07:17:01;;;;;;;0.73;0.52;;;;;;;7.32;100.00;99652.00;6278261;28;20372;-75
2023/04/13 07:20:04;;;;;;;5.68;0.75;;;;;;;7.40;100.00;99654.16;6279468;28;20449;-75
2023/04/13 07:23:06;;;;;;;0.52;0.32;;;;;;;7.47;100.00;99660.72;6268357;28;20076;-76
2023/04/13 07:26:12;;;;;;;0.73;0.43;;;;;;;7.42;100.00;99662.78;6274577;28;20049;-75
2023/04/13 07:29:15;;;;;;;0.70;0.40;;;;;;;7.44;100.00;99672.19;6278865;28;20045;-75
2023/04/13 07:32:18;;;;;;;0.73;0.40;;;;;;;7.45;100.00;99683.47;6279211;28;20045;-75
2023/04/13 07:35:20;;;;;;;1.05;0.77;;;;;;;7.49;100.00;99683.22;6279294;28;20060;-75
2023/04/13 07:38:22;;;;;;;1.60;0.55;;;;;;;7.54;100.00;99682.94;6278854;28;20049;-75
2023/04/13 07:41:23;;;;;;;0.82;0.40;;;;;;;7.57;100.00;99693.25;6278787;28;20460;-76
2023/04/13 07:44:25;;;;;;;0.30;0.30;;;;;;;7.62;100.00;99709.50;6278502;28;20049;-75
2023/04/13 07:47:28;;;;;;;1.20;0.30;;;;;;;7.68;100.00;99706.53;6278445;28;20123;-75
2023/04/13 07:50:29;;;;;;;1.23;0.35;;;;;;;7.71;100.00;99711.56;6278480;28;20323;-75
2023/04/13 07:53:30;;;;;;;0.63;0.40;;;;;;;7.79;100.00;99716.38;6278565;28;20041;-75
2023/04/13 07:56:32;;;;;;;0.43;0.43;;;;;;;7.85;100.00;99726.47;6278369;28;20129;-75
2023/04/13 07:59:33;;;;;;;0.45;0.40;;;;;;;7.93;100.00;99731.25;6278550;28;20045;-75
2023/04/13 08:02:36;;;;;;;0.68;0.45;;;;;;;7.95;100.00;99739.84;6276556;28;20354;-75
2023/04/13 08:05:38;;;;;;;0.30;0.30;;;;;;;8.05;100.00;99733.16;6274190;28;20056;-77
2023/04/13 08:08:39;;;;;;;1.35;0.40;;;;;;;8.14;100.00;99740.47;6276661;28;20052;-76
2023/04/13 08:11:41;;;;;;;0.50;0.32;;;;;;;8.15;100.00;99739.53;6268465;28;20045;-77
2023/04/13 08:14:43;;;;;;;0.60;0.40;;;;;;;8.09;100.00;99748.59;6276253;28;20052;-76
2023/04/13 08:17:46;;;;;;;0.25;0.25;;;;;;;8.14;100.00;99746.53;6268590;28;20049;-75
2023/04/13 08:20:49;;;;;;;0.75;0.28;;;;;;;8.16;100.00;99759.53;6271467;28;20045;-76
2023/04/13 08:23:50;;;;;;;0.82;0.50;;;;;;;8.17;100.00;99762.97;6274428;28;20056;-76
2023/04/13 08:26:53;;;;;;;0.98;0.60;;;;;;;8.18;100.00;99765.53;6270118;28;20452;-76
2023/04/13 08:29:59;;;;;;;5.32;0.60;;;;;;;8.20;100.00;99760.19;6262567;28;20106;-77
2023/04/13 08:33:02;;;;;;;0.77;0.55;;;;;;;8.19;100.00;99766.38;6275636;28;20445;-76
2023/04/13 08:36:04;;;;;;;1.55;0.73;;;;;;;8.21;100.00;99773.16;6277143;28;20053;-77
2023/04/13 08:39:08;;;;;;;0.88;0.55;;;;;;;8.23;100.00;99783.56;6277667;28;20053;-76
2023/04/13 08:42:10;;;;;;;0.82;0.60;;;;;;;8.25;100.00;99781.69;6277578;28;20045;-75
2023/04/13 08:45:12;;;;;;;0.63;0.60;;;;;;;8.22;100.00;99784.47;6277550;28;20059;-76
2023/04/13 08:48:18;;;;;;;0.55;0.40;;;;;;;8.22;100.00;99784.47;6277046;28;20056;-75
2023/04/13 08:51:21;;;;;;;1.33;0.80;;;;;;;8.41;100.00;99798.22;6275201;28;20049;-76
2023/04/13 08:54:23;;;;;;;2.42;1.10;;;;;;;8.32;100.00;99811.81;6275904;28;20056;-75
2023/04/13 08:57:24;;;;;;;0.85;0.80;;;;;;;8.21;100.00;99799.34;6271111;28;20045;-76
2023/04/13 09:00:26;;;;;;;1.27;0.93;;;;;;;8.25;100.00;99802.63;6275621;28;20052;-75
2023/04/13 09:03:35;;;;;;;1.05;0.90;;;;;;;8.39;100.00;99800.06;6269318;28;20041;-77
2023/04/13 09:06:39;;;;;;;1.92;0.90;;;;;;;8.54;100.00;99812.25;6274001;28;20051;-75
2023/04/13 09:09:42;;;;;;;1.15;1.02;;;;;;;8.78;100.00;99815.16;6274920;28;20114;-75
2023/04/13 09:12:44;;;;;;;2.80;1.42;;;;;;;8.92;100.00;99816.09;6267288;28;20445;-75
2023/04/13 09:15:46;;;;;;;1.90;1.17;;;;;;;8.93;100.00;99821.25;6268253;28;20045;-76
2023/04/13 09:18:51;;;;;;;1.25;1.13;;;;;;;8.88;100.00;99824.16;6273638;28;20342;-76
2023/04/13 09:21:52;;;;;;;1.73;1.27;;;;;;;8.89;100.00;99825.81;6274884;28;20051;-77
2023/04/13 09:24:53;;;;;;;2.28;1.70;;;;;;;8.92;100.00;99840.53;6275361;28;20098;-76
2023/04/13 09:27:56;;;;;;;3.38;2.10;;;;;;;8.89;100.00;99846.78;6275814;28;20053;-76
2023/04/13 09:31:02;;;;;;;1.45;1.25;;;;;;;8.93;100.00;99844.00;6276469;28;20457;-76
2023/04/13 09:34:05;;;;;;;1.67;1.08;;;;;;;9.03;100.00;99824.97;6275340;28;20365;-74
2023/04/13 09:37:12;;;;;;;2.92;1.40;;;;;;;9.13;100.00;99839.22;6268157;28;20080;-75
2023/04/13 09:40:17;;;;;;;7.30;1.45;;;;;;;9.34;100.00;99838.81;6275543;28;20392;-75
2023/04/13 09:43:19;;;;;;;2.28;1.67;;;;;;;9.36;100.00;99845.66;6275391;28;20049;-75
2023/04/13 09:46:21;;;;;;;2.65;1.33;;;;;;;9.40;100.00;99835.78;6275621;28;20450;-74
2023/04/13 09:49:24;;;;;;;1.13;1.02;;;;;;;9.41;100.00;99842.72;6274509;28;20040;-73
2023/04/13 09:52:25;;;;;;;1.20;1.10;;;;;;;9.43;100.00;99846.09;6275175;28;20114;-74
2023/04/13 09:55:28;;;;;;;2.00;1.38;;;;;;;9.57;100.00;99863.56;6275531;28;20049;-73
2023/04/13 09:58:30;;;;;;;3.65;1.50;;;;;;;9.70;100.00;99840.88;6275034;28;20049;-73
2023/04/13 10:01:31;;;;;;;3.15;1.20;;;;;;;9.85;100.00;99841.66;6275213;28;20049;-73
2023/04/13 10:04:35;;;;;;;1.98;1.30;;;;;;;9.91;100.00;99852.63;6275549;28;20041;-73
2023/04/13 10:07:38;;;;;;;3.55;1.58;;;;;;;9.88;100.00;99870.34;6275030;28;20215;-73
2023/04/13 10:10:40;;;;;;;1.20;1.08;;;;;;;9.77;100.00;99870.19;6275246;28;20345;-74
2023/04/13 10:13:48;;;;;;;2.65;1.63;;;;;;;9.72;100.00;99874.88;6276725;28;20048;-74
2023/04/13 10:17:11;;;;;;;1.38;1.20;;;;;;;9.64;100.00;99886.72;6266715;28;20049;-75
2023/04/13 10:20:14;;;;;;;1.83;1.30;;;;;;;9.61;100.00;99886.06;6263432;28;20060;-74
2023/04/13 10:23:17;;;;;;;1.17;1.08;;;;;;;9.65;100.00;99884.91;6250141;28;20350;-74
2023/04/13 10:26:29;;;;;;;2.15;1.40;;;;;;;9.65;100.00;99877.06;6250838;28;20068;-73
2023/04/13 10:29:34;;;;;;;1.45;1.15;;;;;;;9.70;100.00;99892.50;6250256;28;20049;-74
2023/04/13 10:32:35;;;;;;;1.67;1.27;;;;;;;9.70;100.00;99898.59;6257268;28;20045;-73
2023/04/13 10:35:39;;;;;;;1.27;1.17;;;;;;;9.65;100.00;99906.75;6259470;28;20049;-73
2023/04/13 10:38:43;;;;;;;1.23;1.13;;;;;;;9.70;100.00;99895.13;6263984;28;20136;-73
2023/04/13 10:41:44;;;;;;;1.20;1.10;;;;;;;9.76;100.00;99910.47;6268426;28;20041;-78
2023/04/13 10:44:47;;;;;;;1.73;1.02;;;;;;;9.79;100.00;99905.03;6266359;28;20041;-78
2023/04/13 10:47:48;;;;;;;1.30;0.80;;;;;;;9.88;100.00;99914.94;6265832;28;20059;-78
2023/04/13 10:50:59;;;;;;;0.82;0.82;;;;;;;9.98;100.00;99910.78;6271606;28;20461;-79
2023/04/13 10:54:04;;;;;;;1.42;1.17;;;;;;;10.06;100.00;99916.38;6271586;28;20434;-78
2023/04/13 10:57:07;;;;;;;2.17;1.30;;;;;;;10.24;100.00;99922.25;6260449;28;20451;-78
2023/04/13 11:00:20;;;;;;;4.10;1.15;;;;;;;10.22;100.00;99921.50;6271771;28;20060;-78
2023/04/13 11:03:21;;;;;;;1.35;1.00;;;;;;;10.14;100.00;99921.16;6272531;28;20052;-77
2023/04/13 11:06:25;;;;;;;1.33;1.00;;;;;;;10.16;100.00;99935.00;6274706;28;20045;-77
2023/04/13 11:09:27;;;;;;;1.80;0.98;;;;;;;10.14;100.00;99943.00;6273302;28;20361;-76
2023/04/13 11:12:28;;;;;;;2.25;1.35;;;;;;;10.15;100.00;99952.56;6274331;28;20489;-77
2023/04/13 11:15:32;;;;;;;1.23;1.05;;;;;;;10.14;100.00;99945.63;6274740;28;20179;-77
2023/04/13 11:18:33;;;;;;;1.20;1.10;;;;;;;10.12;100.00;99957.16;6274318;28;20322;-77
2023/04/13 11:21:36;;;;;;;3.63;1.42;;;;;;;10.05;100.00;99953.25;6274740;28;20048;-77
2023/04/13 11:24:39;;;;;;;4.65;2.13;;;;;;;9.96;100.00;99956.47;6273209;28;20041;-79
2023/04/13 11:27:41;;;;;;;2.45;1.25;;;;;;;9.88;100.00;99973.53;6274328;28;20037;-78
2023/04/13 11:30:42;;;;;;;4.63;1.10;;;;;;;9.84;100.00;99971.19;6274362;28;20052;-77
2023/04/13 11:33:48;;;;;;;3.30;1.15;;;;;;;9.97;100.00;99979.13;6274204;28;20044;-77
2023/04/13 11:36:59;;;;;;;2.40;1.55;;;;;;;10.14;100.00;99987.63;6274225;28;20442;-77
2023/04/13 11:40:08;;;;;;;4.43;1.63;;;;;;;10.33;100.00;99979.44;6274102;28;20554;-78
2023/04/13 11:43:10;;;;;;;1.27;1.17;;;;;;;10.43;100.00;99968.34;6266239;28;20057;-77
2023/04/13 11:46:12;;;;;;;2.80;1.50;;;;;;;10.48;100.00;99974.13;6274099;28;20127;-77
2023/04/13 11:49:14;;;;;;;1.25;1.00;;;;;;;10.41;100.00;99973.69;6274108;28;20408;-77
2023/04/13 11:52:16;;;;;;;0.80;0.80;;;;;;;10.40;100.00;99982.50;6273982;28;20045;-77
2023/04/13 11:55:19;;;;;;;0.90;0.80;;;;;;;10.28;100.00;99983.31;6273155;28;20056;-76
2023/04/13 11:58:21;;;;;;;2.08;1.20;;;;;;;10.27;100.00;99986.88;6278397;28;20048;-77
2023/04/13 12:01:23;;;;;;;0.75;0.75;;;;;;;10.19;100.00;99997.00;6273114;28;20360;-76
2023/04/13 12:04:25;;;;;;;1.33;1.02;;;;;;;10.18;100.00;100000.56;6258633;28;20044;-77
2023/04/13 12:07:28;;;;;;;1.00;0.90;;;;;;;10.27;100.00;99994.75;6271895;28;20406;-76
2023/04/13 12:10:33;;;;;;;2.25;1.20;;;;;;;10.39;100.00;99996.59;6277768;28;20045;-77
2023/04/13 12:13:43;;;;;;;3.65;1.40;;;;;;;10.56;100.00;100003.38;6271739;28;20440;-77
2023/04/13 12:16:47;;;;;;;2.10;1.23;;;;;;;10.62;100.00;100001.19;6278208;28;20049;-76
2023/04/13 12:19:54;;;;;;;1.20;1.10;;;;;;;10.60;100.00;100007.50;6274551;28;20606;-75
2023/04/13 12:22:57;;;;;;;5.93;1.15;;;;;;;10.70;100.00;100015.63;6273820;28;20071;-76
2023/04/13 12:26:01;;;;;;;1.58;1.15;;;;;;;10.80;100.00;100006.16;6275428;28;20052;-75
2023/04/13 12:29:04;;;;;;;3.00;1.60;;;;;;;11.04;100.00;100019.50;6272538;28;20053;-77
2023/04/13 12:32:10;;;;;;;1.77;1.38;;;;;;;11.45;100.00;100024.56;6263222;28;20118;-77
2023/04/13 12:35:12;;;;;;;3.63;1.42;;;;;;;11.71;100.00;100009.59;6268493;28;20056;-76
2023/04/13 12:38:14;;;;;;;4.15;1.35;;;;;;;12.15;100.00;100017.03;6266857;28;20056;-74
2023/04/13 12:41:16;;;;;;;2.38;1.70;;;;;;;12.12;100.00;100009.34;6275797;28;20052;-76
2023/04/13 12:44:17;;;;;;;4.82;1.40;;;;;;;11.80;100.00;100008.09;6266463;28;20438;-74
2023/04/13 12:47:18;;;;;;;2.05;1.30;;;;;;;11.56;100.00;100002.78;6271088;28;20345;-75
2023/04/13 12:50:20;;;;;;;1.20;1.10;;;;;;;11.86;100.00;100003.31;6270287;28;20049;-75
2023/04/13 12:53:23;;;;;;;1.23;1.00;;;;;;;12.38;100.00;100012.72;6277466;28;20055;-76
2023/04/13 12:56:25;;;;;;;2.15;1.58;;;;;;;12.85;100.00;100012.81;6276545;28;20051;-74
2023/04/13 12:59:26;;;;;;;1.92;1.10;;;;;;;13.20;100.00;100021.56;6274671;28;20044;-70
2023/04/13 13:02:29;;;;;;;1.40;1.20;;;;;;;12.84;100.00;100025.16;6274875;28;20456;-75
2023/04/13 13:05:31;;;;;;;4.13;1.67;;;;;;;12.57;100.00;100032.47;6261578;28;20049;-74
2023/04/13 13:08:34;;;;;;;2.33;1.45;;;;;;;12.40;100.00;100036.34;6262723;28;20042;-74
2023/04/13 13:11:35;;;;;;;2.38;1.48;;;;;;;12.62;100.00;100035.59;6281299;28;20045;-74
2023/04/13 13:14:37;;;;;;;5.85;1.38;;;;;;;12.71;100.00;100040.22;6283456;28;20041;-75
2023/04/13 13:17:39;;;;;;;5.07;1.50;;;;;;;12.70;100.00;100034.09;6266106;28;20061;-74
2023/04/13 13:20:40;;;;;;;1.38;0.98;;;;;;;12.82;100.00;100037.63;6251175;28;20663;-76
2023/04/13 13:23:44;;;;;;;4.97;1.65;;;;;;;12.54;100.00;100056.44;6266136;28;20040;-75
2023/04/13 13:26:45;;;;;;;2.28;1.20;;;;;;;12.27;100.00;100064.53;6270439;28;20048;-75
2023/04/13 13:29:47;;;;;;;2.20;1.27;;;;;;;12.12;100.00;100072.53;6268305;28;20049;-75
2023/04/13 13:32:48;;;;;;;1.63;1.33;;;;;;;12.14;100.00;100061.91;6269645;28;20045;-75
2023/04/13 13:35:50;;;;;;;3.08;1.30;;;;;;;12.06;100.00;100074.78;6279256;28;20060;-75
2023/04/13 13:38:53;;;;;;;1.60;1.33;;;;;;;11.81;100.00;100070.34;6276091;28;20053;-75
2023/04/13 13:41:55;;;;;;;6.10;1.38;;;;;;;11.73;100.00;100068.25;6275848;28;20430;-75
2023/04/13 13:44:57;;;;;;;2.55;1.45;;;;;;;11.77;100.00;100072.38;6276058;28;20076;-74
2023/04/13 13:47:58;;;;;;;1.98;1.30;;;;;;;12.09;100.00;100082.47;6275877;28;20053;-74
2023/04/13 13:51:00;;;;;;;4.28;1.55;;;;;;;12.28;100.00;100085.50;6275941;28;20446;-75
2023/04/13 13:54:03;;;;;;;2.03;1.30;;;;;;;12.69;100.00;100082.50;6271355;28;20060;-74
2023/04/13 13:57:05;;;;;;;4.20;1.00;;;;;;;12.90;94.06;100114.41;6260559;28;20056;-74
2023/04/13 14:00:14;;;;;;;0.88;0.50;;;;;;;12.97;86.03;100113.94;6273771;28;20052;-71
2023/04/13 14:03:16;;;;;;;3.45;0.80;;;;;;;12.54;87.21;100119.69;6274600;28;20081;-75
2023/04/13 14:06:17;;;;;;;1.55;0.85;;;;;;;12.59;98.60;100118.41;6275214;28;20053;-74
2023/04/13 14:09:20;;;;;;;2.70;0.82;;;;;;;12.57;92.51;100107.13;6274291;28;20049;-75
2023/04/13 14:12:21;;;;;;;5.35;0.77;;;;;;;12.38;95.60;100122.56;6274891;28;20060;-75
2023/04/13 14:15:23;;;;;;;0.32;0.30;;;;;;;12.43;95.75;100123.91;6275207;28;20045;-74